Flight Track Log - Related Links

Times and Time Zones

All times are in EDT time to prevent confusion due to time zone crossing. See the OPT327 flight status page for this flight to view local times or setup timezone preferences in your user account.

Time Position Orientation Groundspeed Altitude Reporting Facility
EDT Latitude Longitude Course Direction KTS MPH feet Rate Location/Type
Mon 06:53:50 AM 39.9980 -76.8120 25° Northeast 254 292 6,100  Level FlightAware ADS-B
Mon 06:54:05 AM 40.0100 -76.7960 46° Northeast 272 313 6,700 2,222 Climbing FlightAware ADS-B
Mon 06:54:17 AM 40.0130 -76.7830 73° East 274 315 7,100 2,182 Climbing FlightAware ADS-B
Mon 06:54:27 AM 40.0130 -76.7600 90° East 279 321 7,500 2,129 Climbing FlightAware ADS-B
Mon 06:54:48 AM 40.0020 -76.7240 112° Southeast 279 321 8,200 1,647 Climbing FlightAware ADS-B
Mon 06:55:18 AM 39.9850 -76.6770 115° Southeast 293 337 8,900 2,571 Climbing FlightAware ADS-B
Mon 06:55:58 AM 39.9610 -76.6150 117° Southeast 283 326 11,200 3,176 Climbing FlightAware ADS-B
Mon 06:56:26 AM 39.9390 -76.5800 129° Southeast 287 330 12,500 2,850 Climbing FlightAware ADS-B
Mon 06:56:38 AM 39.9230 -76.5720 159° South 287 330 13,100 2,455 Climbing FlightAware ADS-B
Mon 06:56:48 AM 39.9078 -76.5715 179° South 299 344 13,400 1,556 Climbing FlightAware ADS-B
Mon 06:57:05 AM 39.8850 -76.5766 190° South 314 361 13,800 1,826 Climbing FlightAware ADS-B
Mon 06:57:11 AM 39.8751 -76.5781 187° South 314 361 14,100 2,923 Climbing FlightAware ADS-B
Mon 06:57:44 AM 39.8287 -76.5796 181° South 305 351 15,700 2,818 Climbing FlightAware ADS-B
Mon 06:58:17 AM 39.7822 -76.5854 185° South 304 350 17,200 2,531 Climbing FlightAware ADS-B
Mon 06:58:48 AM 39.7376 -76.5922 187° South 313 360 18,400 2,262 Climbing FlightAware ADS-B
Mon 06:59:18 AM 39.6937 -76.5978 186° South 315 362 19,500 2,095 Climbing FlightAware ADS-B
Mon 06:59:51 AM 39.6460 -76.6036 185° South 325 374 20,600 2,000 Climbing FlightAware ADS-B
Mon 07:00:21 AM 39.6003 -76.6093 185° South 329 379 21,600 1,935 Climbing FlightAware ADS-B
Mon 07:00:53 AM 39.5504 -76.6154 185° South 337 388 22,600 1,905 Climbing FlightAware ADS-B
Mon 07:01:24 AM 39.5026 -76.6211 185° South 338 389 23,600 1,770 Climbing FlightAware ADS-B
Mon 07:01:54 AM 39.4549 -76.6269 185° South 346 398 24,400 1,742 Climbing FlightAware ADS-B
Mon 07:02:26 AM 39.4032 -76.6332 185° South 350 403 25,400 1,810 Climbing FlightAware ADS-B
Mon 07:02:57 AM 39.3536 -76.6392 185° South 354 407 26,300 1,745 Climbing FlightAware ADS-B
Mon 07:03:21 AM 39.3133 -76.6433 185° South 356 410 27,000 1,964 Climbing FlightAware ADS-B
Mon 07:03:52 AM 39.2631 -76.6448 181° South 353 406 28,100 2,164 Climbing FlightAware ADS-B
Mon 07:04:22 AM 39.2143 -76.6459 181° South 349 402 29,200 1,800 Climbing FlightAware ADS-B
Mon 07:04:52 AM 39.1648 -76.6475 181° South 355 409 29,900 1,672 Climbing FlightAware ADS-B
Mon 07:05:23 AM 39.1144 -76.6494 182° South 351 404 30,900 2,032 Climbing FlightAware ADS-B
Mon 07:05:54 AM 39.0650 -76.6512 182° South 344 396 32,000 1,672 Climbing FlightAware ADS-B
Mon 07:06:24 AM 39.0165 -76.6530 182° South 350 403 32,600 1,065 Climbing FlightAware ADS-B
Mon 07:06:56 AM 38.9634 -76.6551 182° South 359 413 33,100 1,048 Climbing FlightAware ADS-B
Mon 07:07:27 AM 38.9121 -76.6570 182° South 365 420 33,700 885 Climbing FlightAware ADS-B
Mon 07:07:57 AM 38.8607 -76.6591 182° South 374 430 34,000 300 Climbing FlightAware ADS-B
Mon 07:08:27 AM 38.8069 -76.6611 182° South 394 453 34,000  Level FlightAware ADS-B
Mon 07:09:00 AM 38.7442 -76.6635 182° South 410 472 34,000  Level FlightAware ADS-B
Mon 07:09:32 AM 38.6836 -76.6658 182° South 417 480 34,000  Level FlightAware ADS-B
Mon 07:10:03 AM 38.6232 -76.6680 182° South 421 484 34,000  Level FlightAware ADS-B
Mon 07:10:35 AM 38.5602 -76.6703 182° South 424 488 34,000  Level FlightAware ADS-B
Mon 07:11:06 AM 38.4993 -76.6725 182° South 426 490 34,000  Level FlightAware ADS-B
Mon 07:11:36 AM 38.4397 -76.6747 182° South 425 489 34,000  Level FlightAware ADS-B
Mon 07:12:07 AM 38.3795 -76.6770 182° South 422 486 34,000 571 Level FlightAware ADS-B
Mon 07:12:39 AM 38.3177 -76.6794 182° South 413 475 34,600 1,164 Climbing FlightAware ADS-B
Mon 07:13:14 AM 38.2505 -76.6819 182° South 408 470 35,300 1,099 Climbing FlightAware ADS-B
Mon 07:13:50 AM 38.1841 -76.6843 182° South 407 468 35,900 609 Climbing FlightAware ADS-B
Mon 07:14:23 AM 38.1211 -76.6867 182° South 416 479 36,000 90 Climbing FlightAware ADS-B
Mon 07:14:57 AM 38.0534 -76.6892 182° South 423 487 36,000  Level FlightAware ADS-B
Mon 07:15:29 AM 37.9910 -76.6915 182° South 422 486 36,000  Level FlightAware ADS-B
Mon 07:16:00 AM 37.9308 -76.6937 182° South 421 484 36,000  Level FlightAware ADS-B
Mon 07:16:30 AM 37.8724 -76.6959 182° South 418 481 36,000  Level FlightAware ADS-B
Mon 07:17:11 AM 37.7950 -76.6990 182° South 417 480 36,000  Level FlightAware ADS-B
Mon 07:17:30 AM 37.7568 -76.7001 181° South 417 480 36,000  Level FlightAware ADS-B
Mon 07:18:04 AM 37.6909 -76.7025 182° South 415 478 36,000  Level FlightAware ADS-B
Mon 07:19:11 AM 37.5623 -76.7071 182° South 415 478 36,000 -110 Level FlightAware ADS-B
Mon 07:19:53 AM 37.4830 -76.7100 182° South 417 480 35,800 -353 Descending FlightAware ADS-B
Mon 07:20:02 AM 37.4649 -76.7109 182° South 415 478 35,700 -955 Descending FlightAware ADS-B
Mon 07:20:37 AM 37.3990 -76.7310 194° South 430 495 35,100 -1,080 Descending FlightAware ADS-B
Mon 07:20:52 AM 37.3693 -76.7431 198° South 426 490 34,800 -1,000 Descending FlightAware ADS-B
Mon 07:21:25 AM 37.3049 -76.7679 197° South 434 499 34,300 -957 Descending FlightAware ADS-B
Mon 07:22:01 AM 37.2400 -76.7930 197° South 436 502 33,700 -955 Descending FlightAware ADS-B
Mon 07:22:09 AM 37.2232 -76.7994 197° South 436 502 33,600 -900 Descending FlightAware ADS-B
Mon 07:22:41 AM 37.1630 -76.8230 197° South 437 503 33,100 -1,048 Descending FlightAware ADS-B
Mon 07:23:12 AM 37.0994 -76.8474 197° South 439 505 32,500 -1,026 Descending FlightAware ADS-B
Mon 07:23:57 AM 37.0120 -76.8810 197° South 440 506 31,800 -944 Descending FlightAware ADS-B
Mon 07:24:41 AM 36.9260 -76.9150 198° South 452 520 31,100 -968 Descending FlightAware ADS-B
Mon 07:25:30 AM 36.8330 -76.9500 197° South 457 526 30,300 -786 Descending FlightAware ADS-B
Mon 07:26:05 AM 36.7660 -76.9760 197° South 456 525 30,000 -212 Descending FlightAware ADS-B
Mon 07:26:55 AM 36.6800 -77.0090 197° South 456 525 30,000  Level FlightAware ADS-B
Mon 07:27:31 AM 36.6190 -77.0320 197° South 456 525 30,000  Level FlightAware ADS-B
Mon 07:28:10 AM 36.5110 -77.0740 197° South 442 509 30,000 -243 Level FlightAware ADS-B
Mon 07:28:45 AM 36.4400 -77.1010 197° South 451 519 29,700 -225 Descending FlightAware ADS-B
Mon 07:29:30 AM 36.3640 -77.1300 197° South 451 519 29,700  Level FlightAware ADS-B
Mon 07:30:31 AM 36.2600 -77.1690 197° South 451 519 29,700  Level FlightAware ADS-B
Mon 07:31:07 AM 36.1990 -77.1920 197° South 451 519 29,700  Level FlightAware ADS-B
Mon 07:31:56 AM 36.1160 -77.2240 197° South 451 519 29,700 -1,275 Level FlightAware ADS-B
Mon 07:32:27 AM 35.9920 -77.2700 197° South 438 504 28,000 -1,437 Descending FlightAware ADS-B
Mon 07:33:07 AM 35.9180 -77.2980 197° South 435 501 28,000  Level FlightAware ADS-B
Mon 07:34:09 AM 35.8080 -77.3390 197° South 435 501 28,000  Level FlightAware ADS-B
Mon 07:35:02 AM 35.7000 -77.3800 197° South 425 489 28,000  Level FlightAware ADS-B
Mon 07:35:40 AM 35.6390 -77.4030 197° South 425 489 28,000  Level FlightAware ADS-B
Mon 07:36:28 AM 35.5620 -77.4320 197° South 425 489 28,000  Level FlightAware ADS-B
Mon 07:37:04 AM 35.5050 -77.4530 197° South 425 489 28,000  Level FlightAware ADS-B
Mon 07:37:52 AM 35.4280 -77.4820 197° South 425 489 28,000  Level FlightAware ADS-B
Mon 07:38:26 AM 35.3740 -77.5020 197° South 425 489 28,000 -6,267 Level FlightAware ADS-B
Mon 07:39:22 AM 35.2114 -77.5597 197° South 432 497 18,600 -5,948 Descending Washington Center
Mon 07:40:22 AM 35.1022 -77.6028 198° South 425 489 16,500 -2,132 Descending Washington Center
Mon 07:41:23 AM 35.0014 -77.6383 196° South 404 465 14,300 -2,067 Descending Washington Center
Mon 07:42:21 AM 34.9028 -77.6736 196° South 385 443 12,400 -1,916 Descending Washington Center
Mon 07:43:22 AM 34.8061 -77.7142 199° South 357 411 10,500 -2,100 Descending Washington Center
Mon 07:44:21 AM 34.7283 -77.7400 195° South 320 368 8,200 -2,370 Descending Washington Center
Mon 07:45:21 AM 34.6528 -77.7683 197° South 294 338 5,800 -2,380 Descending Washington Center
Mon 07:46:22 AM 34.5814 -77.7967 198° South 283 326 3,400 -1,450 Descending Washington Center
Mon 07:47:21 AM 34.5200 -77.8431 212° Southwest 270 311 2,900 -252 Descending Washington Center
Mon 07:48:21 AM 34.4608 -77.8867 211° Southwest 270 311 2,900  Level Washington Center
Mon 07:49:22 AM 34.4142 -77.9256 215° Southwest 241 277 2,900  Level Washington Center
Mon 07:50:20 AM 34.3633 -77.9644 212° Southwest 224 258 2,900  Level Washington Center

Login

Don't have an account? Register now (free) for customized features, flight alerts, and more!